sensor_id;sensor_type;location;lat;lon;timestamp;pressure;altitude;pressure_sealevel;temperature;humidity
9721;BME280;4899;42.644;23.366;2022-12-24T00:00:00;94098.03;;;3.19;100.00
9721;BME280;4899;42.644;23.366;2022-12-24T00:02:26;94099.34;;;3.11;100.00
9721;BME280;4899;42.644;23.366;2022-12-24T00:04:51;94093.25;;;3.12;100.00
9721;BME280;4899;42.644;23.366;2022-12-24T00:07:17;94095.78;;;3.12;100.00
9721;BME280;4899;42.644;23.366;2022-12-24T00:09:42;94091.97;;;3.09;100.00
9721;BME280;4899;42.644;23.366;2022-12-24T00:12:08;94061.84;;;2.93;100.00
9721;BME280;4899;42.644;23.366;2022-12-24T00:14:33;94090.19;;;3.10;100.00
9721;BME280;4899;42.644;23.366;2022-12-24T00:16:59;94100.81;;;3.22;100.00
9721;BME280;4899;42.644;23.366;2022-12-24T00:19:24;94068.19;;;2.90;100.00
9721;BME280;4899;42.644;23.366;2022-12-24T00:21:50;94092.81;;;3.00;100.00
9721;BME280;4899;42.644;23.366;2022-12-24T00:24:15;94091.84;;;2.86;100.00
9721;BME280;4899;42.644;23.366;2022-12-24T00:26:41;94103.78;;;2.85;100.00
9721;BME280;4899;42.644;23.366;2022-12-24T00:29:06;94096.47;;;2.78;100.00
9721;BME280;4899;42.644;23.366;2022-12-24T00:31:31;94104.09;;;2.73;100.00
9721;BME280;4899;42.644;23.366;2022-12-24T00:33:57;94086.31;;;2.68;100.00
9721;BME280;4899;42.644;23.366;2022-12-24T00:36:41;94086.06;;;2.70;100.00
9721;BME280;4899;42.644;23.366;2022-12-24T00:39:06;94094.44;;;2.70;100.00
9721;BME280;4899;42.644;23.366;2022-12-24T00:41:32;94089.88;;;2.67;100.00
9721;BME280;4899;42.644;23.366;2022-12-24T00:44:03;94087.59;;;2.66;100.00
9721;BME280;4899;42.644;23.366;2022-12-24T00:46:32;94100.03;;;2.67;100.00
9721;BME280;4899;42.644;23.366;2022-12-24T00:48:58;94071.16;;;2.53;100.00
9721;BME280;4899;42.644;23.366;2022-12-24T00:51:24;94078.47;;;2.65;100.00
9721;BME280;4899;42.644;23.366;2022-12-24T00:53:50;94088.09;;;2.73;100.00
9721;BME280;4899;42.644;23.366;2022-12-24T00:56:16;94087.34;;;2.67;100.00
9721;BME280;4899;42.644;23.366;2022-12-24T00:58:41;94100.78;;;2.78;100.00
9721;BME280;4899;42.644;23.366;2022-12-24T01:01:07;94087.81;;;2.80;100.00
9721;BME280;4899;42.644;23.366;2022-12-24T01:03:32;94071.09;;;2.68;100.00
9721;BME280;4899;42.644;23.366;2022-12-24T01:06:05;94092.66;;;2.71;100.00
9721;BME280;4899;42.644;23.366;2022-12-24T01:08:32;94094.97;;;2.67;100.00
9721;BME280;4899;42.644;23.366;2022-12-24T01:10:58;94063.59;;;2.48;100.00
9721;BME280;4899;42.644;23.366;2022-12-24T01:13:24;94065.34;;;2.53;100.00
9721;BME280;4899;42.644;23.366;2022-12-24T01:15:49;94059.50;;;2.47;100.00
9721;BME280;4899;42.644;23.366;2022-12-24T01:18:15;94097.47;;;2.77;100.00
9721;BME280;4899;42.644;23.366;2022-12-24T01:20:41;94071.63;;;2.65;100.00
9721;BME280;4899;42.644;23.366;2022-12-24T01:23:06;94093.41;;;2.82;100.00
9721;BME280;4899;42.644;23.366;2022-12-24T01:25:32;94104.75;;;2.94;100.00
9721;BME280;4899;42.644;23.366;2022-12-24T01:27:57;94078.66;;;2.84;100.00
9721;BME280;4899;42.644;23.366;2022-12-24T01:30:23;94083.69;;;2.94;100.00
9721;BME280;4899;42.644;23.366;2022-12-24T01:32:48;94071.00;;;2.89;100.00
9721;BME280;4899;42.644;23.366;2022-12-24T01:35:14;94076.81;;;2.94;100.00
9721;BME280;4899;42.644;23.366;2022-12-24T01:37:41;94074.03;;;2.91;100.00
9721;BME280;4899;42.644;23.366;2022-12-24T01:40:09;94081.41;;;2.92;100.00
9721;BME280;4899;42.644;23.366;2022-12-24T01:42:53;94087.22;;;2.93;100.00
9721;BME280;4899;42.644;23.366;2022-12-24T01:45:57;94084.25;;;2.81;100.00
9721;BME280;4899;42.644;23.366;2022-12-24T01:51:11;94098.25;;;2.78;100.00
9721;BME280;4899;42.644;23.366;2022-12-24T01:53:42;94078.22;;;2.66;100.00
9721;BME280;4899;42.644;23.366;2022-12-24T01:56:09;94088.59;;;2.75;100.00
9721;BME280;4899;42.644;23.366;2022-12-24T01:58:36;94095.47;;;2.74;100.00
9721;BME280;4899;42.644;23.366;2022-12-24T02:01:04;94063.28;;;2.60;100.00
9721;BME280;4899;42.644;23.366;2022-12-24T02:03:30;94089.88;;;2.77;100.00
9721;BME280;4899;42.644;23.366;2022-12-24T02:05:57;94085.25;;;2.85;100.00
9721;BME280;4899;42.644;23.366;2022-12-24T02:08:23;94043.75;;;2.55;100.00
9721;BME280;4899;42.644;23.366;2022-12-24T02:10:49;94044.75;;;2.54;100.00
9721;BME280;4899;42.644;23.366;2022-12-24T02:13:16;94063.47;;;2.68;100.00
9721;BME280;4899;42.644;23.366;2022-12-24T02:21:38;94085.50;;;2.83;100.00
9721;BME280;4899;42.644;23.366;2022-12-24T02:24:33;94086.28;;;2.84;100.00
9721;BME280;4899;42.644;23.366;2022-12-24T02:40:42;94055.44;;;2.46;100.00
9721;BME280;4899;42.644;23.366;2022-12-24T02:43:12;94066.63;;;2.50;100.00
9721;BME280;4899;42.644;23.366;2022-12-24T02:45:41;94079.03;;;2.57;100.00
9721;BME280;4899;42.644;23.366;2022-12-24T02:48:12;94070.16;;;2.54;100.00
9721;BME280;4899;42.644;23.366;2022-12-24T02:50:39;94072.94;;;2.53;100.00
9721;BME280;4899;42.644;23.366;2022-12-24T02:53:05;94076.75;;;2.55;100.00
9721;BME280;4899;42.644;23.366;2022-12-24T02:55:41;94050.38;;;2.51;100.00
9721;BME280;4899;42.644;23.366;2022-12-24T02:58:41;94064.56;;;2.52;100.00
9721;BME280;4899;42.644;23.366;2022-12-24T03:11:48;94061.81;;;2.38;100.00
9721;BME280;4899;42.644;23.366;2022-12-24T03:14:18;94042.34;;;2.19;100.00
9721;BME280;4899;42.644;23.366;2022-12-24T03:16:45;94072.22;;;2.37;100.00
9721;BME280;4899;42.644;23.366;2022-12-24T03:19:11;94059.56;;;2.32;100.00
9721;BME280;4899;42.644;23.366;2022-12-24T03:21:38;94058.25;;;2.39;100.00
9721;BME280;4899;42.644;23.366;2022-12-24T03:24:07;94065.13;;;2.34;100.00
9721;BME280;4899;42.644;23.366;2022-12-24T03:26:33;94062.63;;;2.19;100.00
9721;BME280;4899;42.644;23.366;2022-12-24T03:28:59;94054.56;;;1.96;100.00
9721;BME280;4899;42.644;23.366;2022-12-24T03:31:25;94056.06;;;1.97;100.00
9721;BME280;4899;42.644;23.366;2022-12-24T03:33:50;94071.28;;;1.97;100.00
9721;BME280;4899;42.644;23.366;2022-12-24T03:36:16;94050.78;;;1.83;100.00
9721;BME280;4899;42.644;23.366;2022-12-24T03:38:42;94064.72;;;1.86;100.00
9721;BME280;4899;42.644;23.366;2022-12-24T03:41:07;94060.41;;;1.87;100.00
9721;BME280;4899;42.644;23.366;2022-12-24T03:43:33;94067.00;;;1.88;100.00
9721;BME280;4899;42.644;23.366;2022-12-24T03:46:04;94059.16;;;1.89;100.00
9721;BME280;4899;42.644;23.366;2022-12-24T03:48:32;94032.53;;;1.71;100.00
9721;BME280;4899;42.644;23.366;2022-12-24T03:50:57;94058.38;;;1.89;100.00
9721;BME280;4899;42.644;23.366;2022-12-24T03:53:23;94070.81;;;1.90;100.00
9721;BME280;4899;42.644;23.366;2022-12-24T03:55:48;94074.13;;;1.85;100.00
9721;BME280;4899;42.644;23.366;2022-12-24T03:58:14;94069.81;;;1.86;100.00
9721;BME280;4899;42.644;23.366;2022-12-24T04:00:40;94062.47;;;1.79;100.00
9721;BME280;4899;42.644;23.366;2022-12-24T04:03:05;94041.41;;;1.69;100.00
9721;BME280;4899;42.644;23.366;2022-12-24T04:05:30;94052.56;;;1.83;100.00
9721;BME280;4899;42.644;23.366;2022-12-24T04:07:56;94044.97;;;1.78;100.00
9721;BME280;4899;42.644;23.366;2022-12-24T04:10:21;94074.88;;;1.86;100.00
9721;BME280;4899;42.644;23.366;2022-12-24T04:12:46;94068.28;;;1.85;100.00
9721;BME280;4899;42.644;23.366;2022-12-24T04:15:12;94088.03;;;1.93;100.00
9721;BME280;4899;42.644;23.366;2022-12-24T04:17:37;94081.22;;;1.83;100.00
9721;BME280;4899;42.644;23.366;2022-12-24T04:20:03;94087.06;;;1.84;100.00
9721;BME280;4899;42.644;23.366;2022-12-24T04:22:29;94086.03;;;1.85;100.00
9721;BME280;4899;42.644;23.366;2022-12-24T04:24:54;94071.59;;;1.80;100.00
9721;BME280;4899;42.644;23.366;2022-12-24T04:27:19;94084.50;;;1.89;100.00
9721;BME280;4899;42.644;23.366;2022-12-24T04:29:45;94092.63;;;1.91;100.00
9721;BME280;4899;42.644;23.366;2022-12-24T04:32:10;94094.66;;;1.89;100.00
9721;BME280;4899;42.644;23.366;2022-12-24T04:34:36;94090.09;;;1.86;100.00
9721;BME280;4899;42.644;23.366;2022-12-24T04:37:01;94098.69;;;1.95;100.00
9721;BME280;4899;42.644;23.366;2022-12-24T04:39:27;94083.50;;;1.85;100.00
9721;BME280;4899;42.644;23.366;2022-12-24T04:41:52;94084.25;;;1.85;100.00
9721;BME280;4899;42.644;23.366;2022-12-24T04:44:18;94082.97;;;1.88;100.00
9721;BME280;4899;42.644;23.366;2022-12-24T04:46:43;94104.78;;;2.04;100.00
9721;BME280;4899;42.644;23.366;2022-12-24T04:49:09;94135.47;;;2.13;100.00
9721;BME280;4899;42.644;23.366;2022-12-24T04:51:35;94122.53;;;2.09;100.00
9721;BME280;4899;42.644;23.366;2022-12-24T04:54:01;94117.47;;;1.94;100.00
9721;BME280;4899;42.644;23.366;2022-12-24T04:56:29;94112.38;;;1.94;100.00
9721;BME280;4899;42.644;23.366;2022-12-24T04:58:56;94117.69;;;1.98;100.00
9721;BME280;4899;42.644;23.366;2022-12-24T05:01:24;94109.34;;;1.92;100.00
9721;BME280;4899;42.644;23.366;2022-12-24T05:03:51;94099.72;;;1.99;100.00
9721;BME280;4899;42.644;23.366;2022-12-24T05:06:20;94096.16;;;2.00;100.00
9721;BME280;4899;42.644;23.366;2022-12-24T05:08:46;94104.00;;;2.14;100.00
9721;BME280;4899;42.644;23.366;2022-12-24T05:11:12;94094.84;;;2.18;100.00
9721;BME280;4899;42.644;23.366;2022-12-24T05:13:43;94094.88;;;2.13;100.00
9721;BME280;4899;42.644;23.366;2022-12-24T05:16:09;94084.47;;;2.09;100.00
9721;BME280;4899;42.644;23.366;2022-12-24T05:18:35;94076.84;;;2.20;100.00
9721;BME280;4899;42.644;23.366;2022-12-24T05:21:01;94076.31;;;2.23;100.00
9721;BME280;4899;42.644;23.366;2022-12-24T05:23:26;94074.28;;;2.20;100.00
9721;BME280;4899;42.644;23.366;2022-12-24T05:26:27;94078.09;;;2.22;100.00
9721;BME280;4899;42.644;23.366;2022-12-24T05:28:54;94050.50;;;2.05;100.00
9721;BME280;4899;42.644;23.366;2022-12-24T05:31:22;94062.63;;;2.19;100.00
9721;BME280;4899;42.644;23.366;2022-12-24T05:33:48;94074.78;;;2.22;100.00
9721;BME280;4899;42.644;23.366;2022-12-24T05:36:14;94093.06;;;2.34;100.00
9721;BME280;4899;42.644;23.366;2022-12-24T05:38:39;94067.22;;;2.11;100.00
9721;BME280;4899;42.644;23.366;2022-12-24T05:41:08;94081.69;;;2.11;100.00
9721;BME280;4899;42.644;23.366;2022-12-24T05:43:37;94069.53;;;1.98;100.00
9721;BME280;4899;42.644;23.366;2022-12-24T05:46:05;94066.00;;;1.89;100.00
9721;BME280;4899;42.644;23.366;2022-12-24T05:48:31;94077.91;;;1.88;100.00
9721;BME280;4899;42.644;23.366;2022-12-24T05:50:57;94060.69;;;1.80;100.00
9721;BME280;4899;42.644;23.366;2022-12-24T05:53:22;94066.75;;;1.89;100.00
9721;BME280;4899;42.644;23.366;2022-12-24T05:55:48;94065.97;;;2.04;100.00
9721;BME280;4899;42.644;23.366;2022-12-24T05:58:14;94060.41;;;1.92;100.00
9721;BME280;4899;42.644;23.366;2022-12-24T06:03:15;94058.16;;;1.70;100.00
9721;BME280;4899;42.644;23.366;2022-12-24T06:05:40;94056.63;;;1.64;100.00
9721;BME280;4899;42.644;23.366;2022-12-24T06:08:06;94089.59;;;1.84;100.00
9721;BME280;4899;42.644;23.366;2022-12-24T06:10:31;94062.72;;;1.68;100.00
9721;BME280;4899;42.644;23.366;2022-12-24T06:12:56;94059.16;;;1.69;100.00
9721;BME280;4899;42.644;23.366;2022-12-24T06:15:22;94087.53;;;1.91;100.00
9721;BME280;4899;42.644;23.366;2022-12-24T06:17:47;94096.66;;;1.92;100.00
9721;BME280;4899;42.644;23.366;2022-12-24T06:20:12;94089.09;;;1.82;100.00
9721;BME280;4899;42.644;23.366;2022-12-24T06:22:38;94113.41;;;1.93;100.00
9721;BME280;4899;42.644;23.366;2022-12-24T06:25:04;94107.56;;;1.88;100.00
9721;BME280;4899;42.644;23.366;2022-12-24T06:27:29;94091.09;;;1.85;100.00
9721;BME280;4899;42.644;23.366;2022-12-24T06:29:55;94086.28;;;1.94;100.00
9721;BME280;4899;42.644;23.366;2022-12-24T06:32:20;94105.81;;;2.03;100.00
9721;BME280;4899;42.644;23.366;2022-12-24T06:34:45;94112.13;;;2.11;100.00
9721;BME280;4899;42.644;23.366;2022-12-24T06:37:11;94115.41;;;2.16;100.00
9721;BME280;4899;42.644;23.366;2022-12-24T06:39:44;94112.63;;;2.13;100.00
9721;BME280;4899;42.644;23.366;2022-12-24T06:42:10;94116.44;;;2.15;100.00
9721;BME280;4899;42.644;23.366;2022-12-24T06:44:35;94091.34;;;2.04;100.00
9721;BME280;4899;42.644;23.366;2022-12-24T06:47:01;94133.91;;;2.32;100.00
9721;BME280;4899;42.644;23.366;2022-12-24T06:49:26;94128.06;;;2.37;100.00
9721;BME280;4899;42.644;23.366;2022-12-24T06:51:51;94132.59;;;2.55;100.00
9721;BME280;4899;42.644;23.366;2022-12-24T06:54:17;94138.44;;;2.56;100.00
9721;BME280;4899;42.644;23.366;2022-12-24T06:56:42;94123.19;;;2.56;100.00
9721;BME280;4899;42.644;23.366;2022-12-24T06:59:08;94139.88;;;2.72;100.00
9721;BME280;4899;42.644;23.366;2022-12-24T07:01:33;94120.06;;;2.84;100.00
9721;BME280;4899;42.644;23.366;2022-12-24T07:03:58;94125.34;;;2.98;100.00
9721;BME280;4899;42.644;23.366;2022-12-24T07:06:27;94133.84;;;3.22;100.00
9721;BME280;4899;42.644;23.366;2022-12-24T07:08:53;94138.53;;;3.44;100.00
9721;BME280;4899;42.644;23.366;2022-12-24T07:11:19;94127.09;;;3.47;100.00
9721;BME280;4899;42.644;23.366;2022-12-24T07:13:45;94120.19;;;3.52;100.00
9721;BME280;4899;42.644;23.366;2022-12-24T07:16:10;94138.41;;;3.64;100.00
9721;BME280;4899;42.644;23.366;2022-12-24T07:18:36;94131.59;;;3.60;100.00
9721;BME280;4899;42.644;23.366;2022-12-24T07:21:03;94130.00;;;3.69;100.00
9721;BME280;4899;42.644;23.366;2022-12-24T07:23:29;94127.16;;;3.76;100.00
9721;BME280;4899;42.644;23.366;2022-12-24T07:25:59;94095.53;;;3.53;100.00
9721;BME280;4899;42.644;23.366;2022-12-24T07:28:25;94133.28;;;3.75;100.00
9721;BME280;4899;42.644;23.366;2022-12-24T07:30:51;94129.16;;;3.79;100.00
9721;BME280;4899;42.644;23.366;2022-12-24T07:33:16;94138.78;;;3.87;100.00
9721;BME280;4899;42.644;23.366;2022-12-24T07:35:41;94129.84;;;3.89;100.00
9721;BME280;4899;42.644;23.366;2022-12-24T07:38:07;94143.28;;;3.95;100.00
9721;BME280;4899;42.644;23.366;2022-12-24T07:40:33;94117.66;;;3.86;100.00
9721;BME280;4899;42.644;23.366;2022-12-24T07:42:59;94142.41;;;4.10;100.00
9721;BME280;4899;42.644;23.366;2022-12-24T07:45:24;94133.25;;;4.09;100.00
9721;BME280;4899;42.644;23.366;2022-12-24T07:47:50;94142.28;;;4.25;100.00
9721;BME280;4899;42.644;23.366;2022-12-24T07:50:15;94125.63;;;4.09;100.00
9721;BME280;4899;42.644;23.366;2022-12-24T07:52:41;94104.28;;;4.05;100.00
9721;BME280;4899;42.644;23.366;2022-12-24T07:55:06;94143.09;;;4.44;100.00
9721;BME280;4899;42.644;23.366;2022-12-24T07:57:32;94140.69;;;4.58;100.00
9721;BME280;4899;42.644;23.366;2022-12-24T07:59:57;94156.94;;;4.86;100.00
9721;BME280;4899;42.644;23.366;2022-12-24T08:02:23;94155.84;;;4.92;100.00
9721;BME280;4899;42.644;23.366;2022-12-24T08:04:48;94166.97;;;5.01;100.00
9721;BME280;4899;42.644;23.366;2022-12-24T08:07:13;94138.34;;;4.85;100.00
9721;BME280;4899;42.644;23.366;2022-12-24T08:09:39;94171.94;;;5.11;100.00
9721;BME280;4899;42.644;23.366;2022-12-24T08:12:04;94167.50;;;5.22;100.00
9721;BME280;4899;42.644;23.366;2022-12-24T08:14:30;94140.88;;;5.09;100.00
9721;BME280;4899;42.644;23.366;2022-12-24T08:16:56;94183.22;;;5.29;100.00
9721;BME280;4899;42.644;23.366;2022-12-24T08:19:22;94182.94;;;5.31;100.00
9721;BME280;4899;42.644;23.366;2022-12-24T08:21:48;94192.59;;;5.34;100.00
9721;BME280;4899;42.644;23.366;2022-12-24T08:24:13;94190.34;;;5.08;100.00
9721;BME280;4899;42.644;23.366;2022-12-24T08:26:39;94174.06;;;5.04;100.00
9721;BME280;4899;42.644;23.366;2022-12-24T08:29:05;94185.25;;;5.08;100.00
9721;BME280;4899;42.644;23.366;2022-12-24T08:31:31;94166.78;;;5.16;100.00
9721;BME280;4899;42.644;23.366;2022-12-24T08:34:05;94185.97;;;5.33;100.00
9721;BME280;4899;42.644;23.366;2022-12-24T08:36:31;94179.44;;;5.45;100.00
9721;BME280;4899;42.644;23.366;2022-12-24T08:38:57;94164.34;;;5.49;100.00
9721;BME280;4899;42.644;23.366;2022-12-24T08:41:22;94154.56;;;5.56;100.00
9721;BME280;4899;42.644;23.366;2022-12-24T08:43:48;94152.88;;;5.65;100.00
9721;BME280;4899;42.644;23.366;2022-12-24T08:46:13;94151.72;;;5.57;100.00
9721;BME280;4899;42.644;23.366;2022-12-24T08:48:39;94156.16;;;5.71;100.00
9721;BME280;4899;42.644;23.366;2022-12-24T08:51:08;94145.41;;;5.87;100.00
9721;BME280;4899;42.644;23.366;2022-12-24T08:53:34;94133.63;;;5.92;100.00
9721;BME280;4899;42.644;23.366;2022-12-24T08:56:02;94165.81;;;6.25;100.00
9721;BME280;4899;42.644;23.366;2022-12-24T08:58:28;94146.34;;;6.43;100.00
9721;BME280;4899;42.644;23.366;2022-12-24T09:00:54;94164.34;;;6.65;100.00
9721;BME280;4899;42.644;23.366;2022-12-24T09:03:19;94135.06;;;6.44;100.00
9721;BME280;4899;42.644;23.366;2022-12-24T09:05:45;94176.50;;;6.73;100.00
9721;BME280;4899;42.644;23.366;2022-12-24T09:08:10;94165.56;;;6.68;100.00
9721;BME280;4899;42.644;23.366;2022-12-24T09:10:35;94168.31;;;6.58;100.00
9721;BME280;4899;42.644;23.366;2022-12-24T09:13:01;94163.22;;;6.58;100.00
9721;BME280;4899;42.644;23.366;2022-12-24T09:15:26;94146.88;;;6.26;100.00
9721;BME280;4899;42.644;23.366;2022-12-24T09:17:52;94157.63;;;6.56;100.00
9721;BME280;4899;42.644;23.366;2022-12-24T09:20:17;94170.50;;;6.64;100.00
9721;BME280;4899;42.644;23.366;2022-12-24T09:22:43;94163.53;;;6.70;100.00
9721;BME280;4899;42.644;23.366;2022-12-24T09:25:08;94161.50;;;6.67;100.00
9721;BME280;4899;42.644;23.366;2022-12-24T09:27:35;94140.41;;;6.75;100.00
9721;BME280;4899;42.644;23.366;2022-12-24T09:30:01;94152.81;;;6.95;100.00
9721;BME280;4899;42.644;23.366;2022-12-24T09:32:26;94154.59;;;7.08;100.00
9721;BME280;4899;42.644;23.366;2022-12-24T09:34:52;94144.09;;;7.10;100.00
9721;BME280;4899;42.644;23.366;2022-12-24T09:37:18;94152.03;;;7.22;100.00
9721;BME280;4899;42.644;23.366;2022-12-24T09:39:43;94155.81;;;7.25;100.00
9721;BME280;4899;42.644;23.366;2022-12-24T09:47:47;94154.59;;;7.08;100.00
9721;BME280;4899;42.644;23.366;2022-12-24T09:53:15;94147.28;;;7.16;100.00
9721;BME280;4899;42.644;23.366;2022-12-24T09:55:46;94151.66;;;7.29;100.00
9721;BME280;4899;42.644;23.366;2022-12-24T09:58:21;94158.84;;;7.27;100.00
9721;BME280;4899;42.644;23.366;2022-12-24T10:00:48;94150.91;;;7.15;100.00
9721;BME280;4899;42.644;23.366;2022-12-24T10:03:15;94129.13;;;7.03;100.00
9721;BME280;4899;42.644;23.366;2022-12-24T10:05:48;94151.75;;;7.24;100.00
9721;BME280;4899;42.644;23.366;2022-12-24T10:08:43;94156.75;;;7.15;100.00
9721;BME280;4899;42.644;23.366;2022-12-24T10:11:17;94155.19;;;7.05;100.00
9721;BME280;4899;42.644;23.366;2022-12-24T10:25:25;94131.75;;;7.26;100.00
9721;BME280;4899;42.644;23.366;2022-12-24T10:27:54;94134.56;;;7.38;100.00
9721;BME280;4899;42.644;23.366;2022-12-24T10:30:21;94138.63;;;7.39;100.00
9721;BME280;4899;42.644;23.366;2022-12-24T10:32:49;94143.91;;;7.56;100.00
9721;BME280;4899;42.644;23.366;2022-12-24T10:37:46;94133.63;;;7.92;100.00
9721;BME280;4899;42.644;23.366;2022-12-24T10:40:33;94141.59;;;7.91;100.00
9721;BME280;4899;42.644;23.366;2022-12-24T10:43:01;94137.03;;;7.65;100.00
9721;BME280;4899;42.644;23.366;2022-12-24T10:45:35;94141.47;;;7.74;100.00
9721;BME280;4899;42.644;23.366;2022-12-24T10:48:07;94129.97;;;7.85;100.00
9721;BME280;4899;42.644;23.366;2022-12-24T10:50:40;94122.28;;;7.85;100.00
9721;BME280;4899;42.644;23.366;2022-12-24T10:53:31;94106.03;;;7.89;100.00
9721;BME280;4899;42.644;23.366;2022-12-24T10:56:04;94119.41;;;7.86;100.00
9721;BME280;4899;42.644;23.366;2022-12-24T10:58:30;94112.66;;;7.68;100.00
9721;BME280;4899;42.644;23.366;2022-12-24T11:00:56;94108.53;;;7.58;100.00
9721;BME280;4899;42.644;23.366;2022-12-24T11:03:27;94132.63;;;7.57;100.00
9721;BME280;4899;42.644;23.366;2022-12-24T11:06:08;94129.94;;;7.62;100.00
9721;BME280;4899;42.644;23.366;2022-12-24T11:08:36;94129.78;;;7.59;100.00
9721;BME280;4899;42.644;23.366;2022-12-24T11:11:08;94131.47;;;7.63;100.00
9721;BME280;4899;42.644;23.366;2022-12-24T11:13:42;94138.81;;;7.79;100.00
9721;BME280;4899;42.644;23.366;2022-12-24T11:16:45;94147.38;;;7.74;100.00
9721;BME280;4899;42.644;23.366;2022-12-24T11:19:18;94142.59;;;7.81;100.00
9721;BME280;4899;42.644;23.366;2022-12-24T11:21:44;94128.31;;;7.89;100.00
9721;BME280;4899;42.644;23.366;2022-12-24T11:26:42;94123.28;;;8.28;100.00
9721;BME280;4899;42.644;23.366;2022-12-24T11:29:22;94126.28;;;8.53;100.00
9721;BME280;4899;42.644;23.366;2022-12-24T11:31:49;94124.06;;;8.60;100.00
9721;BME280;4899;42.644;23.366;2022-12-24T11:34:28;94127.75;;;8.76;100.00
9721;BME280;4899;42.644;23.366;2022-12-24T11:37:06;94137.88;;;8.90;100.00
9721;BME280;4899;42.644;23.366;2022-12-24T11:39:59;94139.66;;;9.29;100.00
9721;BME280;4899;42.644;23.366;2022-12-24T11:42:33;94136.81;;;9.74;100.00
9721;BME280;4899;42.644;23.366;2022-12-24T11:45:04;94135.88;;;10.04;100.00
9721;BME280;4899;42.644;23.366;2022-12-24T11:47:36;94139.63;;;10.33;100.00
9721;BME280;4899;42.644;23.366;2022-12-24T11:52:56;94137.59;;;10.56;100.00
9721;BME280;4899;42.644;23.366;2022-12-24T12:01:09;94119.50;;;10.35;100.00
9721;BME280;4899;42.644;23.366;2022-12-24T12:03:48;94076.91;;;10.08;100.00
9721;BME280;4899;42.644;23.366;2022-12-24T12:08:56;94088.66;;;10.35;100.00
9721;BME280;4899;42.644;23.366;2022-12-24T12:11:24;94113.16;;;10.41;100.00
9721;BME280;4899;42.644;23.366;2022-12-24T12:13:52;94117.72;;;10.65;100.00
9721;BME280;4899;42.644;23.366;2022-12-24T12:16:27;94116.97;;;10.64;100.00
9721;BME280;4899;42.644;23.366;2022-12-24T12:19:15;94097.22;;;10.86;100.00
9721;BME280;4899;42.644;23.366;2022-12-24T12:21:45;94120.91;;;11.00;100.00
9721;BME280;4899;42.644;23.366;2022-12-24T12:24:18;94094.38;;;10.78;100.00
9721;BME280;4899;42.644;23.366;2022-12-24T12:26:45;94116.84;;;10.99;100.00
9721;BME280;4899;42.644;23.366;2022-12-24T12:29:33;94107.06;;;10.84;100.00
9721;BME280;4899;42.644;23.366;2022-12-24T12:32:06;94109.56;;;11.01;100.00
9721;BME280;4899;42.644;23.366;2022-12-24T12:34:41;94111.53;;;11.25;100.00
9721;BME280;4899;42.644;23.366;2022-12-24T12:37:14;94086.91;;;11.15;100.00
9721;BME280;4899;42.644;23.366;2022-12-24T12:39:41;94108.78;;;11.51;100.00
9721;BME280;4899;42.644;23.366;2022-12-24T12:42:32;94123.41;;;11.59;98.22
9721;BME280;4899;42.644;23.366;2022-12-24T12:48:38;94124.03;;;11.56;92.03
9721;BME280;4899;42.644;23.366;2022-12-24T12:51:11;94119.59;;;11.65;100.00
9721;BME280;4899;42.644;23.366;2022-12-24T12:54:12;94130.91;;;11.52;95.17
9721;BME280;4899;42.644;23.366;2022-12-24T12:56:47;94108.13;;;11.12;98.76
9721;BME280;4899;42.644;23.366;2022-12-24T12:59:40;94132.47;;;10.94;98.24
9721;BME280;4899;42.644;23.366;2022-12-24T13:21:30;94151.31;;;10.22;100.00
9721;BME280;4899;42.644;23.366;2022-12-24T13:24:06;94144.03;;;10.24;100.00
9721;BME280;4899;42.644;23.366;2022-12-24T13:26:39;94151.28;;;10.13;100.00
9721;BME280;4899;42.644;23.366;2022-12-24T13:37:33;94182.66;;;9.32;100.00
9721;BME280;4899;42.644;23.366;2022-12-24T13:53:37;94171.25;;;8.59;100.00
9721;BME280;4899;42.644;23.366;2022-12-24T13:56:29;94177.91;;;8.60;100.00
9721;BME280;4899;42.644;23.366;2022-12-24T13:59:12;94179.28;;;8.35;100.00
9721;BME280;4899;42.644;23.366;2022-12-24T14:01:44;94180.88;;;8.31;100.00
9721;BME280;4899;42.644;23.366;2022-12-24T14:06:49;94186.47;;;8.33;100.00
9721;BME280;4899;42.644;23.366;2022-12-24T14:09:19;94173.03;;;8.27;100.00
9721;BME280;4899;42.644;23.366;2022-12-24T14:14:32;94185.25;;;8.30;100.00
9721;BME280;4899;42.644;23.366;2022-12-24T14:17:04;94172.97;;;8.19;100.00
9721;BME280;4899;42.644;23.366;2022-12-24T14:20:01;94183.56;;;8.03;100.00
9721;BME280;4899;42.644;23.366;2022-12-24T14:22:41;94184.63;;;8.02;100.00
9721;BME280;4899;42.644;23.366;2022-12-24T14:25:20;94188.41;;;8.05;100.00
9721;BME280;4899;42.644;23.366;2022-12-24T14:27:57;94199.28;;;8.11;100.00
9721;BME280;4899;42.644;23.366;2022-12-24T14:30:30;94196.81;;;7.83;100.00
9721;BME280;4899;42.644;23.366;2022-12-24T14:35:41;94207.47;;;7.77;100.00
9721;BME280;4899;42.644;23.366;2022-12-24T14:38:13;94202.53;;;7.66;100.00
9721;BME280;4899;42.644;23.366;2022-12-24T14:44:03;94200.44;;;7.46;100.00
9721;BME280;4899;42.644;23.366;2022-12-24T14:46:55;94210.50;;;7.79;100.00
9721;BME280;4899;42.644;23.366;2022-12-24T14:49:48;94210.72;;;7.91;100.00
9721;BME280;4899;42.644;23.366;2022-12-24T14:54:50;94190.84;;;8.10;100.00
9721;BME280;4899;42.644;23.366;2022-12-24T14:57:25;94208.03;;;8.32;100.00
9721;BME280;4899;42.644;23.366;2022-12-24T15:02:37;94221.03;;;8.36;100.00
9721;BME280;4899;42.644;23.366;2022-12-24T15:05:11;94221.41;;;8.29;100.00
9721;BME280;4899;42.644;23.366;2022-12-24T15:07:42;94223.59;;;8.36;100.00
9721;BME280;4899;42.644;23.366;2022-12-24T15:10:39;94229.44;;;8.50;100.00
9721;BME280;4899;42.644;23.366;2022-12-24T15:15:48;94215.38;;;8.47;100.00
9721;BME280;4899;42.644;23.366;2022-12-24T15:18:16;94236.06;;;8.51;100.00
9721;BME280;4899;42.644;23.366;2022-12-24T15:20:46;94242.00;;;8.60;100.00
9721;BME280;4899;42.644;23.366;2022-12-24T15:23:32;94246.53;;;8.63;100.00
9721;BME280;4899;42.644;23.366;2022-12-24T15:28:50;94250.97;;;8.71;100.00
9721;BME280;4899;42.644;23.366;2022-12-24T15:31:18;94241.47;;;8.72;100.00
9721;BME280;4899;42.644;23.366;2022-12-24T15:33:49;94226.47;;;8.65;100.00
9721;BME280;4899;42.644;23.366;2022-12-24T15:36:22;94242.28;;;8.58;100.00
9721;BME280;4899;42.644;23.366;2022-12-24T15:38:51;94241.28;;;8.68;100.00